KCRW Airport Diagram

We have created a template for each of the higher traffic airports in the vZID airspace. They include KCMH, KCRW, KCVG, KDAY, KIND, KLEX and KSDF. You wil find usefull information including the airport diagram, weather, and specific airport procedures.

KCRW Weather

[Source: ADDS]
METAR
KCRW 230454Z 00000KT 10SM FEW014 BKN085 BKN100 24/21 A3000 RMK AO2 SLP148 T02390211 403330206 =
KCRW 230531Z 2306/2406 00000KT P6SM FEW014 BKN090 BKN100 FM231000 00000KT 5SM SHRA OVC026 FM231200 VRB03KT 3SM SHRA OVC009 FM231500 03004KT P6SM SHRA OVC012 FM231900 02006KT P6SM BKN022 FM232300 VRB03KT P6SM SCT070
TAF
KCRW 230531Z 2306/2406 00000KT P6SM FEW014 BKN090 BKN100 FM231000 00000KT 5SM SHRA OVC026 FM231200 VRB03KT 3SM SHRA OVC009 FM231500 03004KT P6SM SHRA OVC012 FM231900 02006KT P6SM BKN022 FM232300 VRB03KT P6SM SCT070 =

KCRW Operations

Calm wind runway up to 10kts: Rw 23

 

JSN Epic template designed by JoomlaShine.com